sensor_id;sensor_type;location;lat;lon;timestamp;pressure;altitude;pressure_sealevel;temperature;humidity
70254;BME280;57649;42.968;1.608;2023-03-13T00:01:54;97229.25;;;10.74;100.00
70254;BME280;57649;42.968;1.608;2023-03-13T00:04:19;97231.13;;;10.65;100.00
70254;BME280;57649;42.968;1.608;2023-03-13T00:06:45;97221.88;;;10.76;100.00
70254;BME280;57649;42.968;1.608;2023-03-13T00:09:12;97223.63;;;10.61;100.00
70254;BME280;57649;42.968;1.608;2023-03-13T00:11:38;97217.28;;;10.53;100.00
70254;BME280;57649;42.968;1.608;2023-03-13T00:14:04;97199.59;;;10.44;100.00
70254;BME280;57649;42.968;1.608;2023-03-13T00:16:30;97208.28;;;10.46;100.00
70254;BME280;57649;42.968;1.608;2023-03-13T00:18:56;97211.28;;;10.43;100.00
70254;BME280;57649;42.968;1.608;2023-03-13T00:21:24;97203.25;;;10.43;100.00
70254;BME280;57649;42.968;1.608;2023-03-13T00:23:50;97197.25;;;10.33;100.00
70254;BME280;57649;42.968;1.608;2023-03-13T00:26:18;97188.19;;;10.42;100.00
70254;BME280;57649;42.968;1.608;2023-03-13T00:28:45;97190.59;;;10.37;100.00
70254;BME280;57649;42.968;1.608;2023-03-13T00:33:42;97180.97;;;10.51;100.00
70254;BME280;57649;42.968;1.608;2023-03-13T00:36:19;97178.84;;;10.46;100.00
70254;BME280;57649;42.968;1.608;2023-03-13T00:38:45;97196.69;;;10.54;100.00
70254;BME280;57649;42.968;1.608;2023-03-13T00:41:16;97188.84;;;10.52;100.00
70254;BME280;57649;42.968;1.608;2023-03-13T00:43:43;97196.03;;;10.52;100.00
70254;BME280;57649;42.968;1.608;2023-03-13T00:46:09;97197.03;;;10.51;100.00
70254;BME280;57649;42.968;1.608;2023-03-13T00:48:35;97198.72;;;10.44;100.00
70254;BME280;57649;42.968;1.608;2023-03-13T00:51:02;97194.25;;;10.36;100.00
70254;BME280;57649;42.968;1.608;2023-03-13T00:53:28;97194.25;;;10.36;100.00
70254;BME280;57649;42.968;1.608;2023-03-13T00:55:57;97196.94;;;10.28;100.00
70254;BME280;57649;42.968;1.608;2023-03-13T00:58:25;97191.63;;;10.11;100.00
70254;BME280;57649;42.968;1.608;2023-03-13T01:00:51;97195.13;;;10.12;100.00
70254;BME280;57649;42.968;1.608;2023-03-13T01:03:17;97180.25;;;10.01;100.00
70254;BME280;57649;42.968;1.608;2023-03-13T01:05:42;97174.06;;;10.09;100.00
70254;BME280;57649;42.968;1.608;2023-03-13T01:08:07;97164.84;;;10.19;100.00
70254;BME280;57649;42.968;1.608;2023-03-13T01:10:33;97155.16;;;10.10;100.00
70254;BME280;57649;42.968;1.608;2023-03-13T01:12:59;97148.13;;;10.17;100.00
70254;BME280;57649;42.968;1.608;2023-03-13T01:15:24;97139.91;;;10.35;100.00
70254;BME280;57649;42.968;1.608;2023-03-13T01:17:50;97131.53;;;10.30;100.00
70254;BME280;57649;42.968;1.608;2023-03-13T01:20:15;97146.91;;;10.36;100.00
70254;BME280;57649;42.968;1.608;2023-03-13T01:22:41;97150.72;;;10.42;100.00
70254;BME280;57649;42.968;1.608;2023-03-13T01:25:07;97147.78;;;10.37;100.00
70254;BME280;57649;42.968;1.608;2023-03-13T01:27:32;97153.09;;;10.29;100.00
70254;BME280;57649;42.968;1.608;2023-03-13T01:29:57;97154.13;;;10.36;100.00
70254;BME280;57649;42.968;1.608;2023-03-13T01:32:23;97143.56;;;10.34;100.00
70254;BME280;57649;42.968;1.608;2023-03-13T01:34:48;97141.88;;;10.50;100.00
70254;BME280;57649;42.968;1.608;2023-03-13T01:37:14;97139.19;;;10.42;100.00
70254;BME280;57649;42.968;1.608;2023-03-13T01:39:39;97127.69;;;10.41;100.00
70254;BME280;57649;42.968;1.608;2023-03-13T01:42:06;97136.53;;;10.42;100.00
70254;BME280;57649;42.968;1.608;2023-03-13T01:44:53;97145.25;;;10.35;100.00
70254;BME280;57649;42.968;1.608;2023-03-13T01:47:19;97136.22;;;10.36;100.00
70254;BME280;57649;42.968;1.608;2023-03-13T01:49:45;97130.31;;;10.49;100.00
70254;BME280;57649;42.968;1.608;2023-03-13T01:54:53;97128.38;;;10.35;100.00
70254;BME280;57649;42.968;1.608;2023-03-13T01:57:26;97129.03;;;10.37;100.00
70254;BME280;57649;42.968;1.608;2023-03-13T02:00:07;97118.78;;;10.49;100.00
70254;BME280;57649;42.968;1.608;2023-03-13T02:02:35;97115.66;;;10.37;100.00
70254;BME280;57649;42.968;1.608;2023-03-13T02:05:04;97112.31;;;10.27;100.00
70254;BME280;57649;42.968;1.608;2023-03-13T02:07:40;97110.97;;;10.31;100.00
70254;BME280;57649;42.968;1.608;2023-03-13T02:10:09;97106.97;;;10.35;100.00
70254;BME280;57649;42.968;1.608;2023-03-13T02:12:39;97086.88;;;10.39;100.00
70254;BME280;57649;42.968;1.608;2023-03-13T02:15:25;97090.91;;;10.35;100.00
70254;BME280;57649;42.968;1.608;2023-03-13T02:17:52;97074.19;;;10.25;100.00
70254;BME280;57649;42.968;1.608;2023-03-13T02:20:20;97078.06;;;10.22;100.00
70254;BME280;57649;42.968;1.608;2023-03-13T02:23:02;97066.34;;;10.23;100.00
70254;BME280;57649;42.968;1.608;2023-03-13T02:25:43;97068.22;;;10.14;100.00
70254;BME280;57649;42.968;1.608;2023-03-13T02:28:18;97067.53;;;10.20;100.00
70254;BME280;57649;42.968;1.608;2023-03-13T02:30:45;97060.84;;;10.16;100.00
70254;BME280;57649;42.968;1.608;2023-03-13T02:33:12;97060.56;;;10.03;100.00
70254;BME280;57649;42.968;1.608;2023-03-13T02:35:39;97053.25;;;9.89;100.00
70254;BME280;57649;42.968;1.608;2023-03-13T02:38:07;97049.44;;;9.91;100.00
70254;BME280;57649;42.968;1.608;2023-03-13T02:40:37;97039.56;;;9.92;100.00
70254;BME280;57649;42.968;1.608;2023-03-13T02:43:08;97033.91;;;9.87;100.00
70254;BME280;57649;42.968;1.608;2023-03-13T02:45:35;97022.53;;;9.85;100.00
70254;BME280;57649;42.968;1.608;2023-03-13T02:48:00;97015.00;;;9.88;100.00
70254;BME280;57649;42.968;1.608;2023-03-13T02:50:26;97024.31;;;10.00;100.00
70254;BME280;57649;42.968;1.608;2023-03-13T02:52:57;97020.44;;;10.11;100.00
70254;BME280;57649;42.968;1.608;2023-03-13T02:55:38;97027.59;;;10.11;100.00
70254;BME280;57649;42.968;1.608;2023-03-13T02:58:05;97022.41;;;10.17;100.00
70254;BME280;57649;42.968;1.608;2023-03-13T03:00:30;97009.69;;;10.19;100.00
70254;BME280;57649;42.968;1.608;2023-03-13T03:02:55;96995.31;;;10.20;100.00
70254;BME280;57649;42.968;1.608;2023-03-13T03:05:21;96991.97;;;10.18;100.00
70254;BME280;57649;42.968;1.608;2023-03-13T03:07:48;96977.44;;;10.13;100.00
70254;BME280;57649;42.968;1.608;2023-03-13T03:10:14;96971.59;;;10.17;100.00
70254;BME280;57649;42.968;1.608;2023-03-13T03:12:40;96987.63;;;10.17;100.00
70254;BME280;57649;42.968;1.608;2023-03-13T03:15:06;96987.28;;;10.20;100.00
70254;BME280;57649;42.968;1.608;2023-03-13T03:17:31;96985.56;;;10.28;100.00
70254;BME280;57649;42.968;1.608;2023-03-13T03:19:56;96976.34;;;10.30;100.00
70254;BME280;57649;42.968;1.608;2023-03-13T03:22:22;96962.31;;;10.28;100.00
70254;BME280;57649;42.968;1.608;2023-03-13T03:24:47;96965.81;;;10.37;100.00
70254;BME280;57649;42.968;1.608;2023-03-13T03:27:13;96963.13;;;10.37;100.00
70254;BME280;57649;42.968;1.608;2023-03-13T03:29:39;96959.63;;;10.36;100.00
70254;BME280;57649;42.968;1.608;2023-03-13T03:32:04;96954.63;;;10.33;100.00
70254;BME280;57649;42.968;1.608;2023-03-13T03:34:30;96944.41;;;10.37;100.00
70254;BME280;57649;42.968;1.608;2023-03-13T03:36:55;96943.03;;;10.41;100.00
70254;BME280;57649;42.968;1.608;2023-03-13T03:39:20;96936.66;;;10.42;100.00
70254;BME280;57649;42.968;1.608;2023-03-13T03:41:46;96938.16;;;10.45;100.00
70254;BME280;57649;42.968;1.608;2023-03-13T03:44:11;96923.28;;;10.42;100.00
70254;BME280;57649;42.968;1.608;2023-03-13T03:46:37;96923.59;;;10.47;100.00
70254;BME280;57649;42.968;1.608;2023-03-13T03:49:02;96925.47;;;10.38;100.00
70254;BME280;57649;42.968;1.608;2023-03-13T03:51:27;96904.34;;;10.67;98.62
70254;BME280;57649;42.968;1.608;2023-03-13T03:53:53;96918.19;;;10.55;99.49
70254;BME280;57649;42.968;1.608;2023-03-13T03:56:19;96912.66;;;10.57;99.12
70254;BME280;57649;42.968;1.608;2023-03-13T03:58:44;96908.28;;;10.56;98.97
70254;BME280;57649;42.968;1.608;2023-03-13T04:01:10;96903.94;;;10.55;98.49
70254;BME280;57649;42.968;1.608;2023-03-13T04:03:35;96903.72;;;10.65;96.68
70254;BME280;57649;42.968;1.608;2023-03-13T04:06:01;96905.44;;;10.57;96.81
70254;BME280;57649;42.968;1.608;2023-03-13T04:08:26;96896.03;;;10.62;96.76
70254;BME280;57649;42.968;1.608;2023-03-13T04:10:51;96909.25;;;10.63;96.80
70254;BME280;57649;42.968;1.608;2023-03-13T04:13:17;96905.63;;;10.56;96.20
70254;BME280;57649;42.968;1.608;2023-03-13T04:15:42;96901.47;;;10.53;98.12
70254;BME280;57649;42.968;1.608;2023-03-13T04:18:08;96903.50;;;10.51;97.44
70254;BME280;57649;42.968;1.608;2023-03-13T04:20:34;96901.16;;;10.48;97.38
70254;BME280;57649;42.968;1.608;2023-03-13T04:22:59;96887.56;;;10.35;98.52
70254;BME280;57649;42.968;1.608;2023-03-13T04:25:25;96901.22;;;10.40;98.67
70254;BME280;57649;42.968;1.608;2023-03-13T04:27:50;96881.16;;;10.44;97.31
70254;BME280;57649;42.968;1.608;2023-03-13T04:30:16;96874.09;;;10.66;95.36
70254;BME280;57649;42.968;1.608;2023-03-13T04:32:41;96876.34;;;11.07;89.78
70254;BME280;57649;42.968;1.608;2023-03-13T04:35:07;96865.09;;;11.12;89.26
70254;BME280;57649;42.968;1.608;2023-03-13T04:37:33;96859.06;;;11.10;89.52
70254;BME280;57649;42.968;1.608;2023-03-13T04:39:58;96865.34;;;11.17;89.12
70254;BME280;57649;42.968;1.608;2023-03-13T04:42:23;96848.91;;;11.20;87.15
70254;BME280;57649;42.968;1.608;2023-03-13T04:44:49;96851.22;;;11.08;89.05
70254;BME280;57649;42.968;1.608;2023-03-13T04:47:14;96840.78;;;10.98;89.69
70254;BME280;57649;42.968;1.608;2023-03-13T04:49:40;96857.94;;;10.89;90.74
70254;BME280;57649;42.968;1.608;2023-03-13T04:52:06;96848.16;;;10.82;90.93
70254;BME280;57649;42.968;1.608;2023-03-13T04:54:31;96846.41;;;10.89;90.27
70254;BME280;57649;42.968;1.608;2023-03-13T04:56:56;96845.13;;;10.85;90.71
70254;BME280;57649;42.968;1.608;2023-03-13T04:59:22;96857.88;;;10.83;91.59
70254;BME280;57649;42.968;1.608;2023-03-13T05:01:48;96834.94;;;10.65;92.69
70254;BME280;57649;42.968;1.608;2023-03-13T05:04:13;96838.56;;;10.72;92.44
70254;BME280;57649;42.968;1.608;2023-03-13T05:06:38;96838.44;;;10.66;93.78
70254;BME280;57649;42.968;1.608;2023-03-13T05:09:12;96817.47;;;10.54;93.85
70254;BME280;57649;42.968;1.608;2023-03-13T05:11:40;96825.31;;;10.56;93.66
70254;BME280;57649;42.968;1.608;2023-03-13T05:14:06;96822.84;;;10.69;91.78
70254;BME280;57649;42.968;1.608;2023-03-13T05:16:33;96803.28;;;10.69;91.66
70254;BME280;57649;42.968;1.608;2023-03-13T05:18:59;96798.66;;;10.63;92.85
70254;BME280;57649;42.968;1.608;2023-03-13T05:21:24;96796.63;;;10.65;92.59
70254;BME280;57649;42.968;1.608;2023-03-13T05:23:49;96791.19;;;10.73;91.34
70254;BME280;57649;42.968;1.608;2023-03-13T05:26:15;96788.63;;;10.79;89.87
70254;BME280;57649;42.968;1.608;2023-03-13T05:28:40;96788.06;;;10.99;88.05
70254;BME280;57649;42.968;1.608;2023-03-13T05:31:05;96801.16;;;11.09;87.99
70254;BME280;57649;42.968;1.608;2023-03-13T05:33:31;96785.09;;;10.94;88.07
70254;BME280;57649;42.968;1.608;2023-03-13T05:35:56;96790.47;;;10.94;88.23
70254;BME280;57649;42.968;1.608;2023-03-13T05:38:22;96788.78;;;10.93;89.73
70254;BME280;57649;42.968;1.608;2023-03-13T05:40:47;96782.22;;;10.66;91.25
70254;BME280;57649;42.968;1.608;2023-03-13T05:43:12;96780.81;;;10.55;92.51
70254;BME280;57649;42.968;1.608;2023-03-13T05:45:38;96776.50;;;10.39;94.72
70254;BME280;57649;42.968;1.608;2023-03-13T05:48:03;96784.81;;;10.44;95.36
70254;BME280;57649;42.968;1.608;2023-03-13T05:50:29;96785.53;;;10.38;95.67
70254;BME280;57649;42.968;1.608;2023-03-13T05:52:54;96789.41;;;10.35;97.84
70254;BME280;57649;42.968;1.608;2023-03-13T05:55:19;96789.22;;;10.14;100.00
70254;BME280;57649;42.968;1.608;2023-03-13T05:57:49;96791.59;;;10.09;100.00
70254;BME280;57649;42.968;1.608;2023-03-13T06:00:18;96797.06;;;10.15;100.00
70254;BME280;57649;42.968;1.608;2023-03-13T06:02:44;96785.84;;;9.97;100.00
70254;BME280;57649;42.968;1.608;2023-03-13T06:05:12;96782.81;;;10.00;100.00
70254;BME280;57649;42.968;1.608;2023-03-13T06:07:37;96787.72;;;9.96;100.00
70254;BME280;57649;42.968;1.608;2023-03-13T06:10:06;96797.41;;;10.12;100.00
70254;BME280;57649;42.968;1.608;2023-03-13T06:12:31;96786.50;;;10.22;98.55
70254;BME280;57649;42.968;1.608;2023-03-13T06:14:57;96789.22;;;10.37;96.42
70254;BME280;57649;42.968;1.608;2023-03-13T06:17:22;96792.63;;;10.46;94.27
70254;BME280;57649;42.968;1.608;2023-03-13T06:19:49;96799.00;;;10.45;94.51
70254;BME280;57649;42.968;1.608;2023-03-13T06:22:15;96791.16;;;10.43;95.79
70254;BME280;57649;42.968;1.608;2023-03-13T06:24:41;96781.03;;;10.15;99.04
70254;BME280;57649;42.968;1.608;2023-03-13T06:27:09;96795.69;;;10.19;100.00
70254;BME280;57649;42.968;1.608;2023-03-13T06:29:34;96782.19;;;10.13;100.00
70254;BME280;57649;42.968;1.608;2023-03-13T06:32:00;96786.50;;;9.99;100.00
70254;BME280;57649;42.968;1.608;2023-03-13T06:34:25;96793.97;;;10.03;100.00
70254;BME280;57649;42.968;1.608;2023-03-13T06:36:50;96784.22;;;10.11;99.19
70254;BME280;57649;42.968;1.608;2023-03-13T06:39:16;96790.91;;;10.15;99.34
70254;BME280;57649;42.968;1.608;2023-03-13T06:41:41;96775.50;;;10.17;99.72
70254;BME280;57649;42.968;1.608;2023-03-13T06:44:07;96780.28;;;10.21;99.99
70254;BME280;57649;42.968;1.608;2023-03-13T06:46:32;96789.84;;;10.01;100.00
70254;BME280;57649;42.968;1.608;2023-03-13T06:48:58;96789.91;;;9.93;100.00
70254;BME280;57649;42.968;1.608;2023-03-13T06:51:23;96779.44;;;10.06;100.00
70254;BME280;57649;42.968;1.608;2023-03-13T06:53:50;96779.25;;;10.08;100.00
70254;BME280;57649;42.968;1.608;2023-03-13T06:56:16;96778.13;;;10.02;100.00
70254;BME280;57649;42.968;1.608;2023-03-13T06:58:45;96788.09;;;10.08;100.00
70254;BME280;57649;42.968;1.608;2023-03-13T07:01:15;96782.56;;;10.10;100.00
70254;BME280;57649;42.968;1.608;2023-03-13T07:03:41;96786.38;;;10.15;100.00
70254;BME280;57649;42.968;1.608;2023-03-13T07:06:07;96791.47;;;10.25;100.00
70254;BME280;57649;42.968;1.608;2023-03-13T07:08:34;96790.69;;;10.16;100.00
70254;BME280;57649;42.968;1.608;2023-03-13T07:11:05;96798.38;;;10.19;100.00
70254;BME280;57649;42.968;1.608;2023-03-13T07:13:31;96798.72;;;10.16;100.00
70254;BME280;57649;42.968;1.608;2023-03-13T07:16:07;96789.53;;;10.19;100.00
70254;BME280;57649;42.968;1.608;2023-03-13T07:18:33;96791.50;;;10.02;100.00
70254;BME280;57649;42.968;1.608;2023-03-13T07:21:00;96793.31;;;10.01;100.00
70254;BME280;57649;42.968;1.608;2023-03-13T07:23:27;96799.63;;;10.32;99.84
70254;BME280;57649;42.968;1.608;2023-03-13T07:25:57;96798.25;;;10.36;99.43
70254;BME280;57649;42.968;1.608;2023-03-13T07:28:24;96798.53;;;10.41;98.04
70254;BME280;57649;42.968;1.608;2023-03-13T07:30:50;96799.06;;;10.36;99.97
70254;BME280;57649;42.968;1.608;2023-03-13T07:33:16;96805.84;;;10.47;99.87
70254;BME280;57649;42.968;1.608;2023-03-13T07:35:49;96802.03;;;10.42;99.88
70254;BME280;57649;42.968;1.608;2023-03-13T07:38:15;96785.16;;;10.41;100.00
70254;BME280;57649;42.968;1.608;2023-03-13T07:40:49;96783.06;;;10.51;100.00
70254;BME280;57649;42.968;1.608;2023-03-13T07:43:15;96790.19;;;10.74;99.33
70254;BME280;57649;42.968;1.608;2023-03-13T07:45:59;96782.03;;;10.67;98.27
70254;BME280;57649;42.968;1.608;2023-03-13T07:48:28;96788.97;;;10.62;99.35
70254;BME280;57649;42.968;1.608;2023-03-13T07:50:54;96784.38;;;10.70;98.66
70254;BME280;57649;42.968;1.608;2023-03-13T07:53:20;96775.50;;;10.85;97.79
70254;BME280;57649;42.968;1.608;2023-03-13T07:55:57;96778.53;;;10.96;97.53
70254;BME280;57649;42.968;1.608;2023-03-13T07:58:25;96775.97;;;11.03;96.84
70254;BME280;57649;42.968;1.608;2023-03-13T08:00:51;96770.03;;;11.08;97.06
70254;BME280;57649;42.968;1.608;2023-03-13T08:03:16;96765.44;;;10.87;98.97
70254;BME280;57649;42.968;1.608;2023-03-13T08:05:42;96764.22;;;10.89;99.50
70254;BME280;57649;42.968;1.608;2023-03-13T08:08:07;96767.00;;;10.96;98.30
70254;BME280;57649;42.968;1.608;2023-03-13T08:10:33;96770.41;;;11.05;97.78
70254;BME280;57649;42.968;1.608;2023-03-13T08:12:58;96758.78;;;10.97;97.32
70254;BME280;57649;42.968;1.608;2023-03-13T08:15:24;96759.84;;;11.18;96.59
70254;BME280;57649;42.968;1.608;2023-03-13T08:17:53;96757.28;;;11.25;94.49
70254;BME280;57649;42.968;1.608;2023-03-13T08:20:18;96748.00;;;11.27;95.05
70254;BME280;57649;42.968;1.608;2023-03-13T08:22:45;96742.28;;;11.30;95.42
70254;BME280;57649;42.968;1.608;2023-03-13T08:25:11;96742.44;;;11.65;93.23
70254;BME280;57649;42.968;1.608;2023-03-13T08:27:37;96746.41;;;11.69;92.67
70254;BME280;57649;42.968;1.608;2023-03-13T08:30:03;96743.00;;;11.82;92.30
70254;BME280;57649;42.968;1.608;2023-03-13T08:32:28;96735.88;;;11.89;92.56
70254;BME280;57649;42.968;1.608;2023-03-13T08:34:53;96740.03;;;11.92;91.80
70254;BME280;57649;42.968;1.608;2023-03-13T08:37:19;96733.47;;;11.94;90.86
70254;BME280;57649;42.968;1.608;2023-03-13T08:39:44;96743.03;;;12.04;91.20
70254;BME280;57649;42.968;1.608;2023-03-13T08:42:11;96732.59;;;12.16;89.88
70254;BME280;57649;42.968;1.608;2023-03-13T08:44:38;96732.28;;;12.25;89.51
70254;BME280;57649;42.968;1.608;2023-03-13T08:47:05;96727.97;;;12.31;88.39
70254;BME280;57649;42.968;1.608;2023-03-13T08:49:31;96729.25;;;12.35;88.56
70254;BME280;57649;42.968;1.608;2023-03-13T08:51:56;96726.19;;;12.38;88.31
70254;BME280;57649;42.968;1.608;2023-03-13T08:54:21;96728.88;;;12.45;88.28
70254;BME280;57649;42.968;1.608;2023-03-13T08:56:47;96720.25;;;12.49;88.63
70254;BME280;57649;42.968;1.608;2023-03-13T08:59:12;96716.22;;;12.67;89.10
70254;BME280;57649;42.968;1.608;2023-03-13T09:01:40;96718.94;;;12.74;89.07
70254;BME280;57649;42.968;1.608;2023-03-13T09:04:06;96711.66;;;12.61;89.16
70254;BME280;57649;42.968;1.608;2023-03-13T09:06:33;96697.97;;;12.56;89.62
70254;BME280;57649;42.968;1.608;2023-03-13T09:08:59;96699.22;;;12.60;90.22
70254;BME280;57649;42.968;1.608;2023-03-13T09:11:24;96702.97;;;12.65;88.24
70254;BME280;57649;42.968;1.608;2023-03-13T09:13:50;96694.81;;;12.80;84.77
70254;BME280;57649;42.968;1.608;2023-03-13T09:16:21;96692.34;;;12.85;85.28
70254;BME280;57649;42.968;1.608;2023-03-13T09:18:47;96685.41;;;13.11;84.39
70254;BME280;57649;42.968;1.608;2023-03-13T09:21:15;96684.41;;;13.25;83.79
70254;BME280;57649;42.968;1.608;2023-03-13T09:23:41;96677.09;;;13.54;82.67
70254;BME280;57649;42.968;1.608;2023-03-13T09:26:07;96669.03;;;13.88;80.54
70254;BME280;57649;42.968;1.608;2023-03-13T09:28:33;96670.66;;;14.42;78.56
70254;BME280;57649;42.968;1.608;2023-03-13T09:31:17;96664.53;;;14.87;74.30
70254;BME280;57649;42.968;1.608;2023-03-13T09:33:43;96650.38;;;15.36;71.05
70254;BME280;57649;42.968;1.608;2023-03-13T09:36:09;96635.50;;;15.91;68.18
70254;BME280;57649;42.968;1.608;2023-03-13T09:38:36;96650.44;;;16.37;67.38
70254;BME280;57649;42.968;1.608;2023-03-13T09:41:23;96633.56;;;16.42;65.99
70254;BME280;57649;42.968;1.608;2023-03-13T09:44:01;96628.13;;;16.85;63.96
70254;BME280;57649;42.968;1.608;2023-03-13T09:46:32;96631.63;;;16.86;64.89
70254;BME280;57649;42.968;1.608;2023-03-13T09:49:03;96616.34;;;17.10;62.45
70254;BME280;57649;42.968;1.608;2023-03-13T09:51:38;96615.69;;;17.26;63.41
70254;BME280;57649;42.968;1.608;2023-03-13T09:54:27;96600.47;;;17.44;62.33
70254;BME280;57649;42.968;1.608;2023-03-13T09:56:58;96602.72;;;18.01;59.94
70254;BME280;57649;42.968;1.608;2023-03-13T09:59:51;96593.75;;;18.36;58.08
70254;BME280;57649;42.968;1.608;2023-03-13T10:02:23;96586.66;;;18.46;56.70
70254;BME280;57649;42.968;1.608;2023-03-13T10:04:54;96595.38;;;18.37;54.99
70254;BME280;57649;42.968;1.608;2023-03-13T10:07:22;96570.53;;;18.40;55.04
70254;BME280;57649;42.968;1.608;2023-03-13T10:09:47;96571.28;;;18.76;54.90
70254;BME280;57649;42.968;1.608;2023-03-13T10:12:15;96570.56;;;19.38;52.73
70254;BME280;57649;42.968;1.608;2023-03-13T10:19:40;96562.34;;;19.67;51.92
70254;BME280;57649;42.968;1.608;2023-03-13T10:22:15;96553.91;;;19.17;52.58
70254;BME280;57649;42.968;1.608;2023-03-13T10:24:49;96548.53;;;19.06;52.97
70254;BME280;57649;42.968;1.608;2023-03-13T10:27:16;96544.47;;;19.20;53.10
70254;BME280;57649;42.968;1.608;2023-03-13T10:29:41;96539.75;;;19.15;54.59
70254;BME280;57649;42.968;1.608;2023-03-13T10:32:10;96530.81;;;18.86;54.69
70254;BME280;57649;42.968;1.608;2023-03-13T10:34:55;96514.53;;;18.86;56.25
70254;BME280;57649;42.968;1.608;2023-03-13T10:37:25;96519.97;;;18.86;56.34
70254;BME280;57649;42.968;1.608;2023-03-13T10:39:51;96500.84;;;18.93;56.98
70254;BME280;57649;42.968;1.608;2023-03-13T10:42:29;96509.75;;;19.05;56.98
70254;BME280;57649;42.968;1.608;2023-03-13T10:45:00;96505.25;;;19.11;56.89
70254;BME280;57649;42.968;1.608;2023-03-13T10:47:26;96501.34;;;19.07;58.47
70254;BME280;57649;42.968;1.608;2023-03-13T10:49:55;96492.50;;;19.62;57.53
70254;BME280;57649;42.968;1.608;2023-03-13T10:52:31;96480.97;;;20.06;56.88
70254;BME280;57649;42.968;1.608;2023-03-13T10:55:06;96471.66;;;20.68;55.45
70254;BME280;57649;42.968;1.608;2023-03-13T10:57:35;96453.25;;;20.75;54.39
70254;BME280;57649;42.968;1.608;2023-03-13T11:00:06;96460.50;;;21.24;52.94
70254;BME280;57649;42.968;1.608;2023-03-13T11:02:47;96457.91;;;21.39;53.25
70254;BME280;57649;42.968;1.608;2023-03-13T11:07:47;96433.69;;;21.38;53.49
70254;BME280;57649;42.968;1.608;2023-03-13T11:10:26;96415.94;;;21.67;52.16
70254;BME280;57649;42.968;1.608;2023-03-13T11:12:56;96412.78;;;21.91;52.64
70254;BME280;57649;42.968;1.608;2023-03-13T11:15:28;96411.88;;;21.75;52.04
70254;BME280;57649;42.968;1.608;2023-03-13T11:18:06;96406.31;;;22.02;51.74
70254;BME280;57649;42.968;1.608;2023-03-13T11:20:38;96403.88;;;22.06;51.45
70254;BME280;57649;42.968;1.608;2023-03-13T11:26:05;96392.28;;;22.31;51.83
70254;BME280;57649;42.968;1.608;2023-03-13T11:28:44;96389.16;;;22.02;54.68
70254;BME280;57649;42.968;1.608;2023-03-13T11:36:33;96352.78;;;21.33;59.66
70254;BME280;57649;42.968;1.608;2023-03-13T11:41:41;96335.16;;;21.03;60.83
70254;BME280;57649;42.968;1.608;2023-03-13T12:00:43;96236.31;;;24.95;30.64
70254;BME280;57649;42.968;1.608;2023-03-13T12:05:59;96209.00;;;25.62;28.80
70254;BME280;57649;42.968;1.608;2023-03-13T12:08:38;96204.59;;;25.85;28.85
70254;BME280;57649;42.968;1.608;2023-03-13T12:11:17;96188.38;;;25.46;29.73
70254;BME280;57649;42.968;1.608;2023-03-13T12:13:59;96191.34;;;25.49;28.13
70254;BME280;57649;42.968;1.608;2023-03-13T12:16:54;96183.41;;;25.48;27.47
70254;BME280;57649;42.968;1.608;2023-03-13T12:19:47;96186.03;;;25.39;26.75
70254;BME280;57649;42.968;1.608;2023-03-13T12:22:29;96173.94;;;25.40;26.65
70254;BME280;57649;42.968;1.608;2023-03-13T12:25:02;96180.41;;;25.49;27.55
70254;BME280;57649;42.968;1.608;2023-03-13T12:27:37;96197.81;;;24.86;44.14
70254;BME280;57649;42.968;1.608;2023-03-13T12:35:33;96205.41;;;21.72;59.71
70254;BME280;57649;42.968;1.608;2023-03-13T12:38:25;96190.94;;;21.66;61.18
70254;BME280;57649;42.968;1.608;2023-03-13T12:41:05;96180.16;;;21.19;63.06
70254;BME280;57649;42.968;1.608;2023-03-13T12:43:34;96198.47;;;20.86;64.67
70254;BME280;57649;42.968;1.608;2023-03-13T13:00:24;96187.16;;;19.42;72.71
70254;BME280;57649;42.968;1.608;2023-03-13T13:03:14;96193.16;;;19.45;72.96
70254;BME280;57649;42.968;1.608;2023-03-13T13:06:04;96185.41;;;19.31;73.09
70254;BME280;57649;42.968;1.608;2023-03-13T13:08:36;96173.53;;;19.15;74.41
70254;BME280;57649;42.968;1.608;2023-03-13T13:11:34;96171.16;;;19.19;73.63
70254;BME280;57649;42.968;1.608;2023-03-13T13:14:01;96170.44;;;19.07;74.17
70254;BME280;57649;42.968;1.608;2023-03-13T13:16:29;96158.03;;;19.11;74.25
70254;BME280;57649;42.968;1.608;2023-03-13T13:24:56;96122.03;;;19.42;73.79
70254;BME280;57649;42.968;1.608;2023-03-13T13:27:45;96111.53;;;19.24;74.93
70254;BME280;57649;42.968;1.608;2023-03-13T13:30:30;96096.31;;;19.50;74.08
70254;BME280;57649;42.968;1.608;2023-03-13T13:38:36;96098.56;;;19.31;75.64
70254;BME280;57649;42.968;1.608;2023-03-13T13:43:45;96105.09;;;19.08;76.89
70254;BME280;57649;42.968;1.608;2023-03-13T13:46:24;96099.50;;;19.15;76.62
70254;BME280;57649;42.968;1.608;2023-03-13T13:51:35;96087.63;;;18.77;77.74
70254;BME280;57649;42.968;1.608;2023-03-13T13:56:58;96116.69;;;18.59;78.71
70254;BME280;57649;42.968;1.608;2023-03-13T14:04:32;96083.28;;;18.54;79.03
70254;BME280;57649;42.968;1.608;2023-03-13T14:07:01;96084.72;;;18.61;78.95
70254;BME280;57649;42.968;1.608;2023-03-13T14:12:33;96081.16;;;18.39;79.81
70254;BME280;57649;42.968;1.608;2023-03-13T14:17:42;96057.31;;;18.58;79.27
70254;BME280;57649;42.968;1.608;2023-03-13T14:23:00;96061.47;;;18.88;77.70
70254;BME280;57649;42.968;1.608;2023-03-13T14:25:39;96050.59;;;19.10;77.20
70254;BME280;57649;42.968;1.608;2023-03-13T14:28:24;96052.28;;;19.16;76.17
70254;BME280;57649;42.968;1.608;2023-03-13T14:30:51;96043.03;;;19.39;75.52
70254;BME280;57649;42.968;1.608;2023-03-13T14:33:17;96048.59;;;19.54;75.12
70254;BME280;57649;42.968;1.608;2023-03-13T14:35:43;96050.66;;;19.42;75.06
70254;BME280;57649;42.968;1.608;2023-03-13T14:38:17;96061.28;;;19.49;74.77
70254;BME280;57649;42.968;1.608;2023-03-13T14:40:43;96057.81;;;19.53;75.26
70254;BME280;57649;42.968;1.608;2023-03-13T14:45:52;96021.31;;;19.71;74.41